sensor_id;sensor_type;location;lat;lon;timestamp;pressure;altitude;pressure_sealevel;temperature;humidity
59435;BME280;45241;49.768;8.636;2023-02-26T00:01:23;99919.97;;;2.61;68.32
59435;BME280;45241;49.768;8.636;2023-02-26T00:03:50;99928.59;;;2.63;68.99
59435;BME280;45241;49.768;8.636;2023-02-26T00:06:16;99928.44;;;2.65;68.59
59435;BME280;45241;49.768;8.636;2023-02-26T00:08:41;99931.22;;;2.91;68.50
59435;BME280;45241;49.768;8.636;2023-02-26T00:11:08;99927.88;;;2.88;68.56
59435;BME280;45241;49.768;8.636;2023-02-26T00:13:35;99927.53;;;2.83;68.67
59435;BME280;45241;49.768;8.636;2023-02-26T00:16:01;99924.41;;;2.70;68.14
59435;BME280;45241;49.768;8.636;2023-02-26T00:18:27;99932.34;;;2.88;68.16
59435;BME280;45241;49.768;8.636;2023-02-26T00:20:53;99933.19;;;2.88;67.78
59435;BME280;45241;49.768;8.636;2023-02-26T00:23:19;99940.97;;;2.90;67.84
59435;BME280;45241;49.768;8.636;2023-02-26T00:25:44;99935.84;;;2.88;67.44
59435;BME280;45241;49.768;8.636;2023-02-26T00:28:11;99940.38;;;2.51;68.98
59435;BME280;45241;49.768;8.636;2023-02-26T00:30:36;99938.66;;;2.60;69.41
59435;BME280;45241;49.768;8.636;2023-02-26T00:33:02;99931.94;;;2.65;67.95
59435;BME280;45241;49.768;8.636;2023-02-26T00:35:31;99937.78;;;2.69;68.32
59435;BME280;45241;49.768;8.636;2023-02-26T00:38:02;99943.75;;;2.71;68.49
59435;BME280;45241;49.768;8.636;2023-02-26T00:40:42;99941.31;;;2.60;70.18
59435;BME280;45241;49.768;8.636;2023-02-26T00:43:13;99937.28;;;2.55;70.29
59435;BME280;45241;49.768;8.636;2023-02-26T00:45:44;99940.59;;;2.67;68.95
59435;BME280;45241;49.768;8.636;2023-02-26T00:51:29;99934.31;;;2.41;69.38
59435;BME280;45241;49.768;8.636;2023-02-26T00:54:07;99939.34;;;2.34;69.45
59435;BME280;45241;49.768;8.636;2023-02-26T00:56:34;99942.84;;;2.52;68.48
59435;BME280;45241;49.768;8.636;2023-02-26T00:58:59;99947.63;;;2.49;68.92
59435;BME280;45241;49.768;8.636;2023-02-26T01:01:24;99939.78;;;2.57;68.85
59435;BME280;45241;49.768;8.636;2023-02-26T01:03:50;99948.59;;;2.20;69.27
59435;BME280;45241;49.768;8.636;2023-02-26T01:06:18;99957.16;;;2.32;68.58
59435;BME280;45241;49.768;8.636;2023-02-26T01:08:52;99949.34;;;2.40;69.19
59435;BME280;45241;49.768;8.636;2023-02-26T01:11:18;99957.28;;;2.40;69.37
59435;BME280;45241;49.768;8.636;2023-02-26T01:13:44;99957.66;;;2.45;70.06
59435;BME280;45241;49.768;8.636;2023-02-26T01:16:14;99957.34;;;2.58;69.56
59435;BME280;45241;49.768;8.636;2023-02-26T01:19:04;99962.78;;;2.56;68.98
59435;BME280;45241;49.768;8.636;2023-02-26T01:21:37;99951.09;;;2.49;69.61
59435;BME280;45241;49.768;8.636;2023-02-26T01:24:06;99962.19;;;2.25;70.32
59435;BME280;45241;49.768;8.636;2023-02-26T01:26:33;99955.19;;;1.97;71.84
59435;BME280;45241;49.768;8.636;2023-02-26T01:28:59;99962.63;;;1.55;72.49
59435;BME280;45241;49.768;8.636;2023-02-26T01:34:10;99962.19;;;2.25;70.58
59435;BME280;45241;49.768;8.636;2023-02-26T01:36:48;99954.19;;;2.45;69.88
59435;BME280;45241;49.768;8.636;2023-02-26T01:39:27;99959.81;;;2.60;69.46
59435;BME280;45241;49.768;8.636;2023-02-26T01:41:59;99958.00;;;2.60;69.77
59435;BME280;45241;49.768;8.636;2023-02-26T01:45:02;99959.00;;;2.59;69.97
59435;BME280;45241;49.768;8.636;2023-02-26T01:47:56;99949.06;;;2.71;69.75
59435;BME280;45241;49.768;8.636;2023-02-26T01:50:24;99953.81;;;2.67;69.24
59435;BME280;45241;49.768;8.636;2023-02-26T01:55:48;99949.13;;;2.79;69.21
59435;BME280;45241;49.768;8.636;2023-02-26T01:58:15;99961.59;;;2.69;69.60
59435;BME280;45241;49.768;8.636;2023-02-26T02:00:41;99955.06;;;2.63;69.25
59435;BME280;45241;49.768;8.636;2023-02-26T02:03:07;99956.31;;;2.69;69.28
59435;BME280;45241;49.768;8.636;2023-02-26T02:05:46;99965.63;;;2.73;69.50
59435;BME280;45241;49.768;8.636;2023-02-26T02:08:12;99964.41;;;2.67;70.16
59435;BME280;45241;49.768;8.636;2023-02-26T02:10:40;99962.97;;;2.73;69.83
59435;BME280;45241;49.768;8.636;2023-02-26T02:13:38;99969.69;;;2.67;70.68
59435;BME280;45241;49.768;8.636;2023-02-26T02:25:01;99979.00;;;2.71;71.62
59435;BME280;45241;49.768;8.636;2023-02-26T02:32:50;99987.00;;;2.52;71.34
59435;BME280;45241;49.768;8.636;2023-02-26T02:35:34;99989.53;;;2.53;70.49
59435;BME280;45241;49.768;8.636;2023-02-26T02:38:49;99986.63;;;2.47;71.12
59435;BME280;45241;49.768;8.636;2023-02-26T02:41:18;99992.22;;;2.44;71.09
59435;BME280;45241;49.768;8.636;2023-02-26T02:43:44;99990.09;;;2.47;71.16
59435;BME280;45241;49.768;8.636;2023-02-26T02:46:16;99998.19;;;2.46;70.70
59435;BME280;45241;49.768;8.636;2023-02-26T02:48:47;99996.53;;;1.59;72.48
59435;BME280;45241;49.768;8.636;2023-02-26T02:51:24;99996.47;;;2.17;71.20
59435;BME280;45241;49.768;8.636;2023-02-26T02:53:58;99996.63;;;2.16;70.79
59435;BME280;45241;49.768;8.636;2023-02-26T02:56:39;99995.66;;;1.97;70.71
59435;BME280;45241;49.768;8.636;2023-02-26T02:59:20;99981.97;;;2.21;70.29
59435;BME280;45241;49.768;8.636;2023-02-26T03:01:51;99994.59;;;1.90;72.10
59435;BME280;45241;49.768;8.636;2023-02-26T03:04:18;99994.47;;;1.44;71.87
59435;BME280;45241;49.768;8.636;2023-02-26T03:06:44;99996.22;;;2.01;71.56
59435;BME280;45241;49.768;8.636;2023-02-26T03:09:11;100002.09;;;1.95;70.98
59435;BME280;45241;49.768;8.636;2023-02-26T03:11:36;100008.06;;;1.97;72.24
59435;BME280;45241;49.768;8.636;2023-02-26T03:14:03;99997.38;;;1.12;73.48
59435;BME280;45241;49.768;8.636;2023-02-26T03:16:41;100007.66;;;1.15;73.40
59435;BME280;45241;49.768;8.636;2023-02-26T03:19:37;100004.16;;;1.04;74.37
59435;BME280;45241;49.768;8.636;2023-02-26T03:22:17;100000.03;;;1.50;74.32
59435;BME280;45241;49.768;8.636;2023-02-26T03:27:33;99998.66;;;1.56;72.44
59435;BME280;45241;49.768;8.636;2023-02-26T03:30:13;100003.66;;;1.49;73.47
59435;BME280;45241;49.768;8.636;2023-02-26T03:32:50;100005.56;;;1.18;73.53
59435;BME280;45241;49.768;8.636;2023-02-26T03:35:28;100004.47;;;1.59;71.40
59435;BME280;45241;49.768;8.636;2023-02-26T03:38:00;100015.06;;;1.69;73.13
59435;BME280;45241;49.768;8.636;2023-02-26T03:40:40;100017.13;;;1.46;72.29
59435;BME280;45241;49.768;8.636;2023-02-26T03:43:22;100027.41;;;1.88;72.68
59435;BME280;45241;49.768;8.636;2023-02-26T03:45:52;100030.34;;;1.56;73.35
59435;BME280;45241;49.768;8.636;2023-02-26T03:48:22;100033.28;;;1.62;70.72
59435;BME280;45241;49.768;8.636;2023-02-26T03:50:50;100037.16;;;1.39;72.47
59435;BME280;45241;49.768;8.636;2023-02-26T03:53:21;100048.84;;;1.36;73.75
59435;BME280;45241;49.768;8.636;2023-02-26T03:58:21;100049.53;;;1.67;72.24
59435;BME280;45241;49.768;8.636;2023-02-26T04:00:51;100049.25;;;1.99;70.70
59435;BME280;45241;49.768;8.636;2023-02-26T04:03:25;100058.00;;;1.61;70.09
59435;BME280;45241;49.768;8.636;2023-02-26T04:05:53;100059.50;;;1.35;72.69
59435;BME280;45241;49.768;8.636;2023-02-26T04:08:21;100060.50;;;0.84;74.27
59435;BME280;45241;49.768;8.636;2023-02-26T04:10:53;100060.69;;;1.02;73.71
59435;BME280;45241;49.768;8.636;2023-02-26T04:13:19;100066.72;;;0.83;74.80
59435;BME280;45241;49.768;8.636;2023-02-26T04:15:45;100059.91;;;1.11;74.25
59435;BME280;45241;49.768;8.636;2023-02-26T04:18:10;100067.47;;;0.85;74.14
59435;BME280;45241;49.768;8.636;2023-02-26T04:20:36;100077.06;;;0.96;74.20
59435;BME280;45241;49.768;8.636;2023-02-26T04:23:01;100067.09;;;0.99;74.10
59435;BME280;45241;49.768;8.636;2023-02-26T04:25:26;100072.44;;;1.28;74.42
59435;BME280;45241;49.768;8.636;2023-02-26T04:27:52;100068.03;;;0.58;75.87
59435;BME280;45241;49.768;8.636;2023-02-26T04:30:17;100076.81;;;0.99;74.90
59435;BME280;45241;49.768;8.636;2023-02-26T04:32:42;100078.75;;;1.06;74.60
59435;BME280;45241;49.768;8.636;2023-02-26T04:35:08;100082.94;;;0.99;74.23
59435;BME280;45241;49.768;8.636;2023-02-26T04:37:33;100083.59;;;0.61;76.22
59435;BME280;45241;49.768;8.636;2023-02-26T04:39:58;100095.41;;;0.36;77.92
59435;BME280;45241;49.768;8.636;2023-02-26T04:42:24;100095.88;;;0.72;76.23
59435;BME280;45241;49.768;8.636;2023-02-26T04:44:49;100095.13;;;0.39;77.49
59435;BME280;45241;49.768;8.636;2023-02-26T04:47:14;100094.88;;;0.42;78.78
59435;BME280;45241;49.768;8.636;2023-02-26T04:49:39;100092.63;;;0.38;78.51
59435;BME280;45241;49.768;8.636;2023-02-26T04:52:05;100099.84;;;0.36;78.02
59435;BME280;45241;49.768;8.636;2023-02-26T04:54:30;100090.22;;;0.56;79.19
59435;BME280;45241;49.768;8.636;2023-02-26T04:56:56;100096.28;;;0.26;78.93
59435;BME280;45241;49.768;8.636;2023-02-26T04:59:21;100100.09;;;0.33;79.46
59435;BME280;45241;49.768;8.636;2023-02-26T05:01:46;100106.31;;;0.53;78.10
59435;BME280;45241;49.768;8.636;2023-02-26T05:04:12;100108.25;;;0.30;79.44
59435;BME280;45241;49.768;8.636;2023-02-26T05:06:37;100109.34;;;0.27;79.63
59435;BME280;45241;49.768;8.636;2023-02-26T05:09:04;100115.00;;;0.43;79.16
59435;BME280;45241;49.768;8.636;2023-02-26T05:11:29;100116.44;;;0.47;78.36
59435;BME280;45241;49.768;8.636;2023-02-26T05:13:54;100111.03;;;0.49;78.79
59435;BME280;45241;49.768;8.636;2023-02-26T05:16:20;100119.13;;;0.36;79.74
59435;BME280;45241;49.768;8.636;2023-02-26T05:18:45;100116.56;;;0.25;79.26
59435;BME280;45241;49.768;8.636;2023-02-26T05:21:10;100117.13;;;0.29;79.52
59435;BME280;45241;49.768;8.636;2023-02-26T05:23:36;100121.56;;;0.28;79.63
59435;BME280;45241;49.768;8.636;2023-02-26T05:26:01;100123.59;;;0.04;80.68
59435;BME280;45241;49.768;8.636;2023-02-26T05:28:26;100124.56;;;0.44;79.42
59435;BME280;45241;49.768;8.636;2023-02-26T05:30:52;100131.41;;;0.26;80.06
59435;BME280;45241;49.768;8.636;2023-02-26T05:33:18;100123.88;;;0.22;80.38
59435;BME280;45241;49.768;8.636;2023-02-26T05:35:44;100130.25;;;0.19;80.75
59435;BME280;45241;49.768;8.636;2023-02-26T05:38:09;100129.22;;;0.10;80.68
59435;BME280;45241;49.768;8.636;2023-02-26T05:40:35;100131.19;;;0.18;80.83
59435;BME280;45241;49.768;8.636;2023-02-26T05:43:00;100140.50;;;0.33;81.78
59435;BME280;45241;49.768;8.636;2023-02-26T05:45:25;100140.13;;;0.06;82.06
59435;BME280;45241;49.768;8.636;2023-02-26T05:47:50;100146.97;;;0.08;81.47
59435;BME280;45241;49.768;8.636;2023-02-26T05:50:16;100146.34;;;0.05;81.83
59435;BME280;45241;49.768;8.636;2023-02-26T05:52:41;100153.34;;;0.47;80.26
59435;BME280;45241;49.768;8.636;2023-02-26T05:55:07;100152.22;;;0.08;80.86
59435;BME280;45241;49.768;8.636;2023-02-26T05:57:33;100157.53;;;-0.03;81.51
59435;BME280;45241;49.768;8.636;2023-02-26T05:59:58;100168.56;;;0.44;80.21
59435;BME280;45241;49.768;8.636;2023-02-26T06:02:24;100173.00;;;0.43;80.49
59435;BME280;45241;49.768;8.636;2023-02-26T06:04:49;100172.44;;;0.19;81.30
59435;BME280;45241;49.768;8.636;2023-02-26T06:07:15;100178.25;;;0.02;82.54
59435;BME280;45241;49.768;8.636;2023-02-26T06:09:40;100184.41;;;0.23;81.38
59435;BME280;45241;49.768;8.636;2023-02-26T06:12:06;100181.22;;;0.61;80.69
59435;BME280;45241;49.768;8.636;2023-02-26T06:14:32;100193.94;;;0.35;80.90
59435;BME280;45241;49.768;8.636;2023-02-26T06:16:58;100197.47;;;-0.19;82.57
59435;BME280;45241;49.768;8.636;2023-02-26T06:19:23;100194.31;;;-0.01;82.05
59435;BME280;45241;49.768;8.636;2023-02-26T06:21:49;100203.97;;;0.41;82.31
59435;BME280;45241;49.768;8.636;2023-02-26T06:24:14;100213.06;;;0.05;81.73
59435;BME280;45241;49.768;8.636;2023-02-26T06:26:40;100202.31;;;0.08;80.98
59435;BME280;45241;49.768;8.636;2023-02-26T06:29:05;100214.91;;;0.37;80.97
59435;BME280;45241;49.768;8.636;2023-02-26T06:31:30;100216.53;;;0.17;81.79
59435;BME280;45241;49.768;8.636;2023-02-26T06:33:55;100218.75;;;0.33;80.97
59435;BME280;45241;49.768;8.636;2023-02-26T06:36:21;100221.06;;;0.26;81.03
59435;BME280;45241;49.768;8.636;2023-02-26T06:38:46;100234.53;;;0.01;81.34
59435;BME280;45241;49.768;8.636;2023-02-26T06:41:12;100240.38;;;0.15;82.12
59435;BME280;45241;49.768;8.636;2023-02-26T06:43:38;100240.34;;;0.59;81.01
59435;BME280;45241;49.768;8.636;2023-02-26T06:46:04;100245.81;;;0.67;80.55
59435;BME280;45241;49.768;8.636;2023-02-26T06:48:29;100248.22;;;0.38;80.07
59435;BME280;45241;49.768;8.636;2023-02-26T06:50:54;100251.72;;;0.27;80.85
59435;BME280;45241;49.768;8.636;2023-02-26T06:53:20;100259.69;;;0.05;81.73
59435;BME280;45241;49.768;8.636;2023-02-26T06:55:46;100262.00;;;0.30;80.38
59435;BME280;45241;49.768;8.636;2023-02-26T06:58:13;100266.31;;;0.31;81.00
59435;BME280;45241;49.768;8.636;2023-02-26T07:00:39;100270.19;;;0.27;80.91
59435;BME280;45241;49.768;8.636;2023-02-26T07:03:06;100270.00;;;0.40;80.31
59435;BME280;45241;49.768;8.636;2023-02-26T07:05:31;100272.03;;;0.47;80.01
59435;BME280;45241;49.768;8.636;2023-02-26T07:07:57;100270.19;;;0.27;80.75
59435;BME280;45241;49.768;8.636;2023-02-26T07:10:22;100279.81;;;0.49;79.59
59435;BME280;45241;49.768;8.636;2023-02-26T07:12:49;100280.78;;;0.48;80.34
59435;BME280;45241;49.768;8.636;2023-02-26T07:15:14;100273.72;;;0.48;80.40
59435;BME280;45241;49.768;8.636;2023-02-26T07:17:40;100274.63;;;0.59;79.86
59435;BME280;45241;49.768;8.636;2023-02-26T07:20:06;100273.31;;;0.53;79.85
59435;BME280;45241;49.768;8.636;2023-02-26T07:22:35;100285.69;;;0.53;80.03
59435;BME280;45241;49.768;8.636;2023-02-26T07:25:01;100287.31;;;0.65;79.33
59435;BME280;45241;49.768;8.636;2023-02-26T07:27:26;100291.34;;;0.48;80.08
59435;BME280;45241;49.768;8.636;2023-02-26T07:29:54;100304.41;;;0.49;80.50
59435;BME280;45241;49.768;8.636;2023-02-26T07:32:19;100299.41;;;0.67;79.83
59435;BME280;45241;49.768;8.636;2023-02-26T07:34:44;100317.00;;;0.78;79.07
59435;BME280;45241;49.768;8.636;2023-02-26T07:37:09;100314.91;;;0.61;79.94
59435;BME280;45241;49.768;8.636;2023-02-26T07:39:35;100316.09;;;0.57;80.05
59435;BME280;45241;49.768;8.636;2023-02-26T07:42:00;100323.84;;;0.69;79.69
59435;BME280;45241;49.768;8.636;2023-02-26T07:44:25;100322.78;;;0.72;79.60
59435;BME280;45241;49.768;8.636;2023-02-26T07:46:51;100321.06;;;0.50;79.56
59435;BME280;45241;49.768;8.636;2023-02-26T07:49:16;100338.66;;;0.61;79.87
59435;BME280;45241;49.768;8.636;2023-02-26T07:51:41;100336.06;;;1.02;79.29
59435;BME280;45241;49.768;8.636;2023-02-26T07:54:11;100337.22;;;0.89;78.82
59435;BME280;45241;49.768;8.636;2023-02-26T07:56:37;100340.06;;;1.18;78.21
59435;BME280;45241;49.768;8.636;2023-02-26T07:59:03;100349.34;;;1.33;78.05
59435;BME280;45241;49.768;8.636;2023-02-26T08:01:29;100343.47;;;1.08;78.02
59435;BME280;45241;49.768;8.636;2023-02-26T08:03:54;100352.56;;;1.16;77.76
59435;BME280;45241;49.768;8.636;2023-02-26T08:06:19;100349.59;;;1.30;77.39
59435;BME280;45241;49.768;8.636;2023-02-26T08:08:45;100347.38;;;1.25;76.68
59435;BME280;45241;49.768;8.636;2023-02-26T08:11:10;100344.97;;;1.74;75.70
59435;BME280;45241;49.768;8.636;2023-02-26T08:13:35;100361.34;;;1.98;75.07
59435;BME280;45241;49.768;8.636;2023-02-26T08:16:01;100356.28;;;1.76;74.50
59435;BME280;45241;49.768;8.636;2023-02-26T08:18:26;100355.88;;;1.80;74.97
59435;BME280;45241;49.768;8.636;2023-02-26T08:20:51;100359.06;;;1.84;73.81
59435;BME280;45241;49.768;8.636;2023-02-26T08:23:17;100357.81;;;2.18;73.42
59435;BME280;45241;49.768;8.636;2023-02-26T08:25:42;100367.25;;;2.02;73.21
59435;BME280;45241;49.768;8.636;2023-02-26T08:28:08;100369.78;;;1.82;73.91
59435;BME280;45241;49.768;8.636;2023-02-26T08:30:33;100372.97;;;1.76;73.62
59435;BME280;45241;49.768;8.636;2023-02-26T08:32:58;100385.97;;;1.89;72.88
59435;BME280;45241;49.768;8.636;2023-02-26T08:35:24;100375.41;;;1.89;72.76
59435;BME280;45241;49.768;8.636;2023-02-26T08:37:49;100375.25;;;1.90;73.73
59435;BME280;45241;49.768;8.636;2023-02-26T08:40:15;100385.84;;;1.90;72.83
59435;BME280;45241;49.768;8.636;2023-02-26T08:42:41;100389.47;;;1.99;72.79
59435;BME280;45241;49.768;8.636;2023-02-26T08:45:06;100397.59;;;2.07;72.17
59435;BME280;45241;49.768;8.636;2023-02-26T08:47:32;100386.22;;;2.16;70.82
59435;BME280;45241;49.768;8.636;2023-02-26T08:49:58;100396.72;;;2.27;71.59
59435;BME280;45241;49.768;8.636;2023-02-26T08:52:23;100396.34;;;1.81;71.17
59435;BME280;45241;49.768;8.636;2023-02-26T08:54:51;100386.69;;;2.01;70.86
59435;BME280;45241;49.768;8.636;2023-02-26T08:57:16;100407.28;;;2.27;70.77
59435;BME280;45241;49.768;8.636;2023-02-26T08:59:41;100401.03;;;2.28;69.25
59435;BME280;45241;49.768;8.636;2023-02-26T09:02:09;100397.09;;;2.23;69.59
59435;BME280;45241;49.768;8.636;2023-02-26T09:04:35;100396.28;;;2.32;68.86
59435;BME280;45241;49.768;8.636;2023-02-26T09:07:00;100404.88;;;2.24;69.08
59435;BME280;45241;49.768;8.636;2023-02-26T09:09:25;100396.88;;;2.45;67.94
59435;BME280;45241;49.768;8.636;2023-02-26T09:11:50;100406.22;;;2.49;67.78
59435;BME280;45241;49.768;8.636;2023-02-26T09:14:16;100406.91;;;2.51;68.74
59435;BME280;45241;49.768;8.636;2023-02-26T09:16:41;100399.53;;;2.45;68.13
59435;BME280;45241;49.768;8.636;2023-02-26T09:19:07;100420.50;;;2.27;67.74
59435;BME280;45241;49.768;8.636;2023-02-26T09:21:32;100421.34;;;2.38;67.16
59435;BME280;45241;49.768;8.636;2023-02-26T09:23:58;100419.78;;;2.25;67.24
59435;BME280;45241;49.768;8.636;2023-02-26T09:26:23;100417.25;;;2.64;67.45
59435;BME280;45241;49.768;8.636;2023-02-26T09:28:49;100417.75;;;2.39;67.02
59435;BME280;45241;49.768;8.636;2023-02-26T09:31:14;100419.59;;;2.48;66.10
59435;BME280;45241;49.768;8.636;2023-02-26T09:33:39;100432.63;;;2.80;66.38
59435;BME280;45241;49.768;8.636;2023-02-26T09:36:05;100429.25;;;2.78;65.73
59435;BME280;45241;49.768;8.636;2023-02-26T09:38:31;100427.09;;;2.43;65.41
59435;BME280;45241;49.768;8.636;2023-02-26T09:41:03;100436.72;;;2.44;65.75
59435;BME280;45241;49.768;8.636;2023-02-26T09:46:12;100443.81;;;2.53;65.07
59435;BME280;45241;49.768;8.636;2023-02-26T09:48:41;100439.84;;;2.68;65.95
59435;BME280;45241;49.768;8.636;2023-02-26T09:51:12;100440.31;;;2.83;65.39
59435;BME280;45241;49.768;8.636;2023-02-26T09:53:42;100448.22;;;2.73;65.74
59435;BME280;45241;49.768;8.636;2023-02-26T09:56:16;100449.28;;;2.61;65.26
59435;BME280;45241;49.768;8.636;2023-02-26T09:58:43;100453.22;;;2.76;65.16
59435;BME280;45241;49.768;8.636;2023-02-26T10:01:26;100442.41;;;2.79;65.27
59435;BME280;45241;49.768;8.636;2023-02-26T10:04:15;100450.06;;;2.92;65.56
59435;BME280;45241;49.768;8.636;2023-02-26T10:12:15;100456.47;;;2.90;63.95
59435;BME280;45241;49.768;8.636;2023-02-26T10:20:14;100466.53;;;3.15;63.25
59435;BME280;45241;49.768;8.636;2023-02-26T10:22:56;100465.84;;;3.52;62.82
59435;BME280;45241;49.768;8.636;2023-02-26T10:25:44;100473.38;;;3.66;63.72
59435;BME280;45241;49.768;8.636;2023-02-26T10:30:43;100487.47;;;3.76;62.42
59435;BME280;45241;49.768;8.636;2023-02-26T10:33:25;100490.13;;;3.76;63.13
59435;BME280;45241;49.768;8.636;2023-02-26T10:35:53;100481.72;;;3.90;62.70
59435;BME280;45241;49.768;8.636;2023-02-26T10:38:24;100482.88;;;3.49;61.68
59435;BME280;45241;49.768;8.636;2023-02-26T10:40:55;100486.06;;;3.82;62.23
59435;BME280;45241;49.768;8.636;2023-02-26T10:43:31;100485.03;;;4.12;61.40
59435;BME280;45241;49.768;8.636;2023-02-26T10:51:42;100487.94;;;4.55;60.17
59435;BME280;45241;49.768;8.636;2023-02-26T10:54:32;100490.53;;;4.38;59.91
59435;BME280;45241;49.768;8.636;2023-02-26T10:56:59;100487.00;;;4.00;59.42
59435;BME280;45241;49.768;8.636;2023-02-26T10:59:25;100486.63;;;4.32;58.76
59435;BME280;45241;49.768;8.636;2023-02-26T11:01:51;100504.88;;;4.54;59.56
59435;BME280;45241;49.768;8.636;2023-02-26T11:04:20;100497.47;;;4.01;59.29
59435;BME280;45241;49.768;8.636;2023-02-26T11:06:51;100500.00;;;3.93;58.80
59435;BME280;45241;49.768;8.636;2023-02-26T11:09:24;100496.41;;;4.31;58.23
59435;BME280;45241;49.768;8.636;2023-02-26T11:11:53;100503.69;;;4.20;57.96
59435;BME280;45241;49.768;8.636;2023-02-26T11:14:19;100494.50;;;4.24;58.10
59435;BME280;45241;49.768;8.636;2023-02-26T11:17:09;100502.22;;;4.45;57.51
59435;BME280;45241;49.768;8.636;2023-02-26T11:19:40;100494.41;;;4.43;57.34
59435;BME280;45241;49.768;8.636;2023-02-26T11:22:07;100500.53;;;4.53;56.67
59435;BME280;45241;49.768;8.636;2023-02-26T11:24:39;100495.22;;;4.81;57.63
59435;BME280;45241;49.768;8.636;2023-02-26T11:27:10;100504.25;;;4.60;56.54
59435;BME280;45241;49.768;8.636;2023-02-26T11:29:39;100499.19;;;4.40;56.75
59435;BME280;45241;49.768;8.636;2023-02-26T11:32:06;100507.84;;;4.42;56.28
59435;BME280;45241;49.768;8.636;2023-02-26T11:34:37;100509.94;;;5.03;56.03
59435;BME280;45241;49.768;8.636;2023-02-26T11:37:04;100499.59;;;4.72;55.82
59435;BME280;45241;49.768;8.636;2023-02-26T11:39:33;100507.91;;;4.87;56.19
59435;BME280;45241;49.768;8.636;2023-02-26T11:42:00;100506.03;;;4.97;56.13
59435;BME280;45241;49.768;8.636;2023-02-26T11:44:39;100493.50;;;4.25;55.55
59435;BME280;45241;49.768;8.636;2023-02-26T11:47:18;100507.31;;;4.38;55.79
59435;BME280;45241;49.768;8.636;2023-02-26T11:49:59;100507.75;;;4.61;56.42
59435;BME280;45241;49.768;8.636;2023-02-26T11:52:32;100498.06;;;4.42;56.73
59435;BME280;45241;49.768;8.636;2023-02-26T11:55:28;100493.09;;;4.20;57.03
59435;BME280;45241;49.768;8.636;2023-02-26T11:57:55;100502.88;;;4.56;56.25
59435;BME280;45241;49.768;8.636;2023-02-26T12:00:35;100496.56;;;4.67;56.69
59435;BME280;45241;49.768;8.636;2023-02-26T12:03:02;100494.25;;;4.82;56.17
59435;BME280;45241;49.768;8.636;2023-02-26T12:05:28;100495.91;;;4.55;55.38
59435;BME280;45241;49.768;8.636;2023-02-26T12:07:53;100496.41;;;4.96;56.28
59435;BME280;45241;49.768;8.636;2023-02-26T12:10:29;100492.19;;;4.76;54.83
59435;BME280;45241;49.768;8.636;2023-02-26T12:13:04;100482.75;;;5.09;55.30
59435;BME280;45241;49.768;8.636;2023-02-26T12:15:45;100492.94;;;5.13;54.45
59435;BME280;45241;49.768;8.636;2023-02-26T12:18:31;100486.28;;;5.27;54.19
59435;BME280;45241;49.768;8.636;2023-02-26T12:21:23;100485.28;;;5.46;54.27
59435;BME280;45241;49.768;8.636;2023-02-26T12:26:56;100484.66;;;5.52;54.25
59435;BME280;45241;49.768;8.636;2023-02-26T12:40:26;100483.81;;;6.13;53.19
59435;BME280;45241;49.768;8.636;2023-02-26T12:43:08;100491.78;;;5.87;52.58
59435;BME280;45241;49.768;8.636;2023-02-26T12:45:55;100489.91;;;5.08;52.64
59435;BME280;45241;49.768;8.636;2023-02-26T12:52:29;100489.69;;;5.37;54.38
59435;BME280;45241;49.768;8.636;2023-02-26T12:55:13;100497.44;;;5.48;53.79
59435;BME280;45241;49.768;8.636;2023-02-26T13:00:56;100510.28;;;5.17;53.90
59435;BME280;45241;49.768;8.636;2023-02-26T13:11:13;100511.66;;;4.94;54.45
59435;BME280;45241;49.768;8.636;2023-02-26T13:16:41;100517.69;;;4.59;55.10
59435;BME280;45241;49.768;8.636;2023-02-26T13:21:37;100515.34;;;4.83;55.02
59435;BME280;45241;49.768;8.636;2023-02-26T13:26:54;100521.97;;;4.97;55.83
59435;BME280;45241;49.768;8.636;2023-02-26T13:29:32;100519.44;;;4.78;55.77
59435;BME280;45241;49.768;8.636;2023-02-26T13:32:13;100529.75;;;4.81;55.63
59435;BME280;45241;49.768;8.636;2023-02-26T13:34:58;100525.88;;;4.75;56.11
59435;BME280;45241;49.768;8.636;2023-02-26T13:37:29;100520.81;;;4.82;55.05
59435;BME280;45241;49.768;8.636;2023-02-26T13:42:55;100525.09;;;4.65;56.13
59435;BME280;45241;49.768;8.636;2023-02-26T13:48:19;100519.44;;;4.78;55.73
59435;BME280;45241;49.768;8.636;2023-02-26T13:51:00;100525.81;;;4.85;56.84
59435;BME280;45241;49.768;8.636;2023-02-26T13:53:47;100524.44;;;4.81;55.78
59435;BME280;45241;49.768;8.636;2023-02-26T13:56:20;100530.38;;;4.75;55.71
59435;BME280;45241;49.768;8.636;2023-02-26T13:58:54;100533.78;;;4.57;56.38
59435;BME280;45241;49.768;8.636;2023-02-26T14:01:28;100534.91;;;5.10;56.68
59435;BME280;45241;49.768;8.636;2023-02-26T14:06:56;100530.06;;;4.78;55.58
59435;BME280;45241;49.768;8.636;2023-02-26T14:12:01;100540.88;;;4.67;55.58
59435;BME280;45241;49.768;8.636;2023-02-26T14:14:39;100535.06;;;4.81;55.14
59435;BME280;45241;49.768;8.636;2023-02-26T14:25:39;100547.06;;;4.48;55.47
59435;BME280;45241;49.768;8.636;2023-02-26T14:27:48;100560.38;;;4.38;56.20
59435;BME280;45241;49.768;8.636;2023-02-26T14:30:28;100548.09;;;4.37;55.74
59435;BME280;45241;49.768;8.636;2023-02-26T14:35:24;100557.84;;;4.46;54.56
59435;BME280;45241;49.768;8.636;2023-02-26T14:37:58;100561.00;;;4.59;54.54
59435;BME280;45241;49.768;8.636;2023-02-26T14:40:38;100557.13;;;4.54;54.67
59435;BME280;45241;49.768;8.636;2023-02-26T14:43:05;100565.09;;;4.54;54.26
59435;BME280;45241;49.768;8.636;2023-02-26T14:45:40;100578.38;;;4.44;52.84
59435;BME280;45241;49.768;8.636;2023-02-26T14:48:12;100568.13;;;4.69;52.13
59435;BME280;45241;49.768;8.636;2023-02-26T14:53:43;100569.09;;;5.05;50.62
59435;BME280;45241;49.768;8.636;2023-02-26T14:59:31;100570.00;;;5.59;49.25
59435;BME280;45241;49.768;8.636;2023-02-26T15:07:28;100567.59;;;6.27;47.42
59435;BME280;45241;49.768;8.636;2023-02-26T15:10:23;100575.81;;;6.33;45.80
59435;BME280;45241;49.768;8.636;2023-02-26T15:15:36;100579.41;;;6.50;45.43
59435;BME280;45241;49.768;8.636;2023-02-26T15:23:17;100565.63;;;6.55;46.44
59435;BME280;45241;49.768;8.636;2023-02-26T15:25:46;100565.19;;;6.16;46.46